sensor_id;sensor_type;location;lat;lon;timestamp;P1;durP1;ratioP1;P2;durP2;ratioP2
7432;SDS011;32233;49.500;7.764;2023-02-22T00:01:12;8.33;;;4.60;;
7432;SDS011;32233;49.500;7.764;2023-02-22T00:03:53;8.47;;;4.30;;
7432;SDS011;32233;49.500;7.764;2023-02-22T00:06:20;5.20;;;3.67;;
7432;SDS011;32233;49.500;7.764;2023-02-22T00:08:50;5.67;;;3.90;;
7432;SDS011;32233;49.500;7.764;2023-02-22T00:11:17;7.97;;;4.20;;
7432;SDS011;32233;49.500;7.764;2023-02-22T00:13:45;5.00;;;3.93;;
7432;SDS011;32233;49.500;7.764;2023-02-22T00:16:16;8.07;;;3.43;;
7432;SDS011;32233;49.500;7.764;2023-02-22T00:18:44;6.67;;;3.60;;
7432;SDS011;32233;49.500;7.764;2023-02-22T00:21:11;6.83;;;4.20;;
7432;SDS011;32233;49.500;7.764;2023-02-22T00:23:40;6.13;;;3.37;;
7432;SDS011;32233;49.500;7.764;2023-02-22T00:26:16;6.87;;;3.63;;
7432;SDS011;32233;49.500;7.764;2023-02-22T00:28:45;4.93;;;2.97;;
7432;SDS011;32233;49.500;7.764;2023-02-22T00:31:13;5.47;;;3.60;;
7432;SDS011;32233;49.500;7.764;2023-02-22T00:33:41;5.93;;;3.53;;
7432;SDS011;32233;49.500;7.764;2023-02-22T00:36:08;5.87;;;3.87;;
7432;SDS011;32233;49.500;7.764;2023-02-22T00:38:36;6.40;;;3.83;;
7432;SDS011;32233;49.500;7.764;2023-02-22T00:41:04;7.43;;;4.00;;
7432;SDS011;32233;49.500;7.764;2023-02-22T00:43:30;5.60;;;3.90;;
7432;SDS011;32233;49.500;7.764;2023-02-22T00:45:57;5.73;;;3.83;;
7432;SDS011;32233;49.500;7.764;2023-02-22T00:48:24;8.20;;;4.53;;
7432;SDS011;32233;49.500;7.764;2023-02-22T00:50:51;5.77;;;4.03;;
7432;SDS011;32233;49.500;7.764;2023-02-22T00:53:22;7.20;;;4.73;;
7432;SDS011;32233;49.500;7.764;2023-02-22T00:55:50;12.33;;;8.03;;
7432;SDS011;32233;49.500;7.764;2023-02-22T00:58:17;12.63;;;7.70;;
7432;SDS011;32233;49.500;7.764;2023-02-22T01:00:44;31.27;;;19.80;;
7432;SDS011;32233;49.500;7.764;2023-02-22T01:03:13;16.80;;;11.03;;
7432;SDS011;32233;49.500;7.764;2023-02-22T01:05:40;27.60;;;17.27;;
7432;SDS011;32233;49.500;7.764;2023-02-22T01:08:08;29.67;;;17.33;;
7432;SDS011;32233;49.500;7.764;2023-02-22T01:10:36;26.90;;;15.67;;
7432;SDS011;32233;49.500;7.764;2023-02-22T01:13:04;20.10;;;11.87;;
7432;SDS011;32233;49.500;7.764;2023-02-22T01:15:34;13.00;;;8.07;;
7432;SDS011;32233;49.500;7.764;2023-02-22T01:18:02;11.23;;;6.97;;
7432;SDS011;32233;49.500;7.764;2023-02-22T01:20:30;8.53;;;6.03;;
7432;SDS011;32233;49.500;7.764;2023-02-22T01:22:58;8.50;;;5.63;;
7432;SDS011;32233;49.500;7.764;2023-02-22T01:25:28;9.70;;;4.90;;
7432;SDS011;32233;49.500;7.764;2023-02-22T01:27:57;7.03;;;4.70;;
7432;SDS011;32233;49.500;7.764;2023-02-22T01:30:27;7.87;;;5.10;;
7432;SDS011;32233;49.500;7.764;2023-02-22T01:32:55;7.33;;;4.27;;
7432;SDS011;32233;49.500;7.764;2023-02-22T01:35:24;7.70;;;4.60;;
7432;SDS011;32233;49.500;7.764;2023-02-22T01:37:53;9.43;;;5.23;;
7432;SDS011;32233;49.500;7.764;2023-02-22T01:40:24;8.13;;;5.43;;
7432;SDS011;32233;49.500;7.764;2023-02-22T01:42:58;9.57;;;5.97;;
7432;SDS011;32233;49.500;7.764;2023-02-22T01:47:56;9.83;;;5.60;;
7432;SDS011;32233;49.500;7.764;2023-02-22T01:50:27;8.13;;;5.30;;
7432;SDS011;32233;49.500;7.764;2023-02-22T01:52:56;9.30;;;5.03;;
7432;SDS011;32233;49.500;7.764;2023-02-22T01:55:23;6.53;;;4.93;;
7432;SDS011;32233;49.500;7.764;2023-02-22T01:57:50;9.53;;;5.13;;
7432;SDS011;32233;49.500;7.764;2023-02-22T02:00:18;11.30;;;5.70;;
7432;SDS011;32233;49.500;7.764;2023-02-22T02:02:48;8.03;;;5.13;;
7432;SDS011;32233;49.500;7.764;2023-02-22T02:05:20;8.47;;;5.10;;
7432;SDS011;32233;49.500;7.764;2023-02-22T02:07:50;7.77;;;4.80;;
7432;SDS011;32233;49.500;7.764;2023-02-22T02:10:19;8.00;;;5.10;;
7432;SDS011;32233;49.500;7.764;2023-02-22T02:12:47;8.50;;;4.87;;
7432;SDS011;32233;49.500;7.764;2023-02-22T02:15:26;7.27;;;4.77;;
7432;SDS011;32233;49.500;7.764;2023-02-22T02:17:56;7.47;;;4.67;;
7432;SDS011;32233;49.500;7.764;2023-02-22T02:26:08;7.40;;;4.63;;
7432;SDS011;32233;49.500;7.764;2023-02-22T02:29:04;5.40;;;4.50;;
7432;SDS011;32233;49.500;7.764;2023-02-22T02:40:03;8.43;;;4.77;;
7432;SDS011;32233;49.500;7.764;2023-02-22T02:43:07;7.23;;;4.93;;
7432;SDS011;32233;49.500;7.764;2023-02-22T02:48:13;7.63;;;4.30;;
7432;SDS011;32233;49.500;7.764;2023-02-22T02:50:43;6.03;;;4.10;;
7432;SDS011;32233;49.500;7.764;2023-02-22T02:53:14;4.17;;;3.37;;
7432;SDS011;32233;49.500;7.764;2023-02-22T02:55:48;5.37;;;3.30;;
7432;SDS011;32233;49.500;7.764;2023-02-22T02:58:16;6.17;;;3.70;;
7432;SDS011;32233;49.500;7.764;2023-02-22T03:00:45;4.70;;;3.40;;
7432;SDS011;32233;49.500;7.764;2023-02-22T03:03:21;6.33;;;3.00;;
7432;SDS011;32233;49.500;7.764;2023-02-22T03:09:04;8.80;;;3.77;;
7432;SDS011;32233;49.500;7.764;2023-02-22T03:11:50;4.83;;;3.93;;
7432;SDS011;32233;49.500;7.764;2023-02-22T03:14:41;8.20;;;4.03;;
7432;SDS011;32233;49.500;7.764;2023-02-22T03:23:06;6.70;;;4.30;;
7432;SDS011;32233;49.500;7.764;2023-02-22T03:25:42;5.33;;;4.07;;
7432;SDS011;32233;49.500;7.764;2023-02-22T03:28:15;5.63;;;4.10;;
7432;SDS011;32233;49.500;7.764;2023-02-22T03:31:08;6.30;;;4.43;;
7432;SDS011;32233;49.500;7.764;2023-02-22T03:33:51;6.20;;;3.80;;
7432;SDS011;32233;49.500;7.764;2023-02-22T03:36:26;6.27;;;4.20;;
7432;SDS011;32233;49.500;7.764;2023-02-22T03:38:57;6.87;;;4.00;;
7432;SDS011;32233;49.500;7.764;2023-02-22T03:41:25;5.47;;;4.10;;
7432;SDS011;32233;49.500;7.764;2023-02-22T03:44:03;6.83;;;4.33;;
7432;SDS011;32233;49.500;7.764;2023-02-22T03:46:32;6.33;;;3.70;;
7432;SDS011;32233;49.500;7.764;2023-02-22T03:52:04;5.93;;;3.97;;
7432;SDS011;32233;49.500;7.764;2023-02-22T03:54:33;7.83;;;3.57;;
7432;SDS011;32233;49.500;7.764;2023-02-22T03:57:11;8.10;;;5.17;;
7432;SDS011;32233;49.500;7.764;2023-02-22T03:59:43;5.83;;;4.33;;
7432;SDS011;32233;49.500;7.764;2023-02-22T04:02:11;6.60;;;4.93;;
7432;SDS011;32233;49.500;7.764;2023-02-22T04:04:37;7.07;;;4.30;;
7432;SDS011;32233;49.500;7.764;2023-02-22T04:07:05;6.37;;;3.90;;
7432;SDS011;32233;49.500;7.764;2023-02-22T04:09:31;6.63;;;4.30;;
7432;SDS011;32233;49.500;7.764;2023-02-22T04:11:58;6.23;;;4.57;;
7432;SDS011;32233;49.500;7.764;2023-02-22T04:14:25;8.60;;;4.63;;
7432;SDS011;32233;49.500;7.764;2023-02-22T04:16:55;8.07;;;4.97;;
7432;SDS011;32233;49.500;7.764;2023-02-22T04:19:22;9.67;;;4.47;;
7432;SDS011;32233;49.500;7.764;2023-02-22T04:21:50;7.47;;;4.73;;
7432;SDS011;32233;49.500;7.764;2023-02-22T04:24:20;6.60;;;4.57;;
7432;SDS011;32233;49.500;7.764;2023-02-22T04:26:47;6.97;;;4.53;;
7432;SDS011;32233;49.500;7.764;2023-02-22T04:29:15;9.60;;;4.67;;
7432;SDS011;32233;49.500;7.764;2023-02-22T04:31:43;7.53;;;4.77;;
7432;SDS011;32233;49.500;7.764;2023-02-22T04:34:10;6.03;;;4.20;;
7432;SDS011;32233;49.500;7.764;2023-02-22T04:36:38;6.90;;;4.20;;
7432;SDS011;32233;49.500;7.764;2023-02-22T04:39:07;7.70;;;4.90;;
7432;SDS011;32233;49.500;7.764;2023-02-22T04:41:34;6.30;;;4.83;;
7432;SDS011;32233;49.500;7.764;2023-02-22T04:44:00;10.27;;;4.60;;
7432;SDS011;32233;49.500;7.764;2023-02-22T04:46:27;6.97;;;4.53;;
7432;SDS011;32233;49.500;7.764;2023-02-22T04:48:54;7.70;;;4.57;;
7432;SDS011;32233;49.500;7.764;2023-02-22T04:51:24;6.83;;;4.43;;
7432;SDS011;32233;49.500;7.764;2023-02-22T04:54:03;9.80;;;5.07;;
7432;SDS011;32233;49.500;7.764;2023-02-22T04:56:32;7.03;;;4.50;;
7432;SDS011;32233;49.500;7.764;2023-02-22T04:58:59;6.60;;;4.80;;
7432;SDS011;32233;49.500;7.764;2023-02-22T05:01:29;8.30;;;4.50;;
7432;SDS011;32233;49.500;7.764;2023-02-22T05:04:00;6.40;;;4.73;;
7432;SDS011;32233;49.500;7.764;2023-02-22T05:06:28;10.07;;;5.10;;
7432;SDS011;32233;49.500;7.764;2023-02-22T05:08:54;9.47;;;5.57;;
7432;SDS011;32233;49.500;7.764;2023-02-22T05:11:21;9.27;;;4.87;;
7432;SDS011;32233;49.500;7.764;2023-02-22T05:13:47;9.47;;;5.30;;
7432;SDS011;32233;49.500;7.764;2023-02-22T05:16:14;9.47;;;5.30;;
7432;SDS011;32233;49.500;7.764;2023-02-22T05:18:41;7.60;;;5.43;;
7432;SDS011;32233;49.500;7.764;2023-02-22T05:21:07;6.40;;;4.70;;
7432;SDS011;32233;49.500;7.764;2023-02-22T05:23:35;6.97;;;4.93;;
7432;SDS011;32233;49.500;7.764;2023-02-22T05:26:01;8.53;;;4.67;;
7432;SDS011;32233;49.500;7.764;2023-02-22T05:28:28;7.27;;;4.53;;
7432;SDS011;32233;49.500;7.764;2023-02-22T05:30:54;7.30;;;4.37;;
7432;SDS011;32233;49.500;7.764;2023-02-22T05:33:21;7.23;;;4.77;;
7432;SDS011;32233;49.500;7.764;2023-02-22T05:35:47;7.07;;;4.90;;
7432;SDS011;32233;49.500;7.764;2023-02-22T05:38:15;9.43;;;4.77;;
7432;SDS011;32233;49.500;7.764;2023-02-22T05:40:42;12.73;;;4.97;;
7432;SDS011;32233;49.500;7.764;2023-02-22T05:43:09;6.90;;;4.57;;
7432;SDS011;32233;49.500;7.764;2023-02-22T05:45:35;8.47;;;4.80;;
7432;SDS011;32233;49.500;7.764;2023-02-22T05:48:02;8.17;;;4.70;;
7432;SDS011;32233;49.500;7.764;2023-02-22T05:50:29;5.27;;;3.97;;
7432;SDS011;32233;49.500;7.764;2023-02-22T05:52:55;6.47;;;4.50;;
7432;SDS011;32233;49.500;7.764;2023-02-22T05:55:22;6.87;;;4.37;;
7432;SDS011;32233;49.500;7.764;2023-02-22T05:57:50;6.73;;;4.60;;
7432;SDS011;32233;49.500;7.764;2023-02-22T06:00:19;7.50;;;4.50;;
7432;SDS011;32233;49.500;7.764;2023-02-22T06:02:57;6.70;;;4.07;;
7432;SDS011;32233;49.500;7.764;2023-02-22T06:05:27;8.03;;;4.27;;
7432;SDS011;32233;49.500;7.764;2023-02-22T06:07:54;6.83;;;3.83;;
7432;SDS011;32233;49.500;7.764;2023-02-22T06:10:21;5.13;;;3.40;;
7432;SDS011;32233;49.500;7.764;2023-02-22T06:12:49;5.77;;;3.03;;
7432;SDS011;32233;49.500;7.764;2023-02-22T06:15:16;8.30;;;3.60;;
7432;SDS011;32233;49.500;7.764;2023-02-22T06:17:44;4.50;;;3.30;;
7432;SDS011;32233;49.500;7.764;2023-02-22T06:20:13;5.67;;;3.77;;
7432;SDS011;32233;49.500;7.764;2023-02-22T06:22:41;5.03;;;3.60;;
7432;SDS011;32233;49.500;7.764;2023-02-22T06:25:08;4.83;;;3.53;;
7432;SDS011;32233;49.500;7.764;2023-02-22T06:27:38;7.67;;;4.03;;
7432;SDS011;32233;49.500;7.764;2023-02-22T06:30:04;11.40;;;7.13;;
7432;SDS011;32233;49.500;7.764;2023-02-22T06:32:32;8.47;;;5.10;;
7432;SDS011;32233;49.500;7.764;2023-02-22T06:34:58;7.33;;;4.83;;
7432;SDS011;32233;49.500;7.764;2023-02-22T06:37:25;7.50;;;4.77;;
7432;SDS011;32233;49.500;7.764;2023-02-22T06:39:51;6.07;;;4.17;;
7432;SDS011;32233;49.500;7.764;2023-02-22T06:42:18;5.97;;;4.37;;
7432;SDS011;32233;49.500;7.764;2023-02-22T06:44:44;6.83;;;4.47;;
7432;SDS011;32233;49.500;7.764;2023-02-22T06:47:11;8.23;;;4.67;;
7432;SDS011;32233;49.500;7.764;2023-02-22T06:49:37;4.57;;;4.13;;
7432;SDS011;32233;49.500;7.764;2023-02-22T06:52:04;6.93;;;4.47;;
7432;SDS011;32233;49.500;7.764;2023-02-22T06:54:32;4.90;;;4.37;;
7432;SDS011;32233;49.500;7.764;2023-02-22T06:56:58;5.43;;;4.37;;
7432;SDS011;32233;49.500;7.764;2023-02-22T06:59:25;5.23;;;4.40;;
7432;SDS011;32233;49.500;7.764;2023-02-22T07:01:53;8.07;;;4.70;;
7432;SDS011;32233;49.500;7.764;2023-02-22T07:04:20;7.13;;;4.73;;
7432;SDS011;32233;49.500;7.764;2023-02-22T07:06:49;6.37;;;4.20;;
7432;SDS011;32233;49.500;7.764;2023-02-22T07:09:17;6.23;;;3.80;;
7432;SDS011;32233;49.500;7.764;2023-02-22T07:11:44;6.77;;;4.37;;
7432;SDS011;32233;49.500;7.764;2023-02-22T07:14:10;5.80;;;4.40;;
7432;SDS011;32233;49.500;7.764;2023-02-22T07:16:37;6.53;;;4.50;;
7432;SDS011;32233;49.500;7.764;2023-02-22T07:19:03;9.20;;;5.40;;
7432;SDS011;32233;49.500;7.764;2023-02-22T07:21:30;13.37;;;7.17;;
7432;SDS011;32233;49.500;7.764;2023-02-22T07:23:56;12.10;;;7.50;;
7432;SDS011;32233;49.500;7.764;2023-02-22T07:26:24;13.47;;;8.97;;
7432;SDS011;32233;49.500;7.764;2023-02-22T07:28:52;18.63;;;13.77;;
7432;SDS011;32233;49.500;7.764;2023-02-22T07:31:19;17.67;;;13.13;;
7432;SDS011;32233;49.500;7.764;2023-02-22T07:33:46;14.43;;;11.67;;
7432;SDS011;32233;49.500;7.764;2023-02-22T07:36:13;12.07;;;8.97;;
7432;SDS011;32233;49.500;7.764;2023-02-22T07:38:43;14.10;;;8.30;;
7432;SDS011;32233;49.500;7.764;2023-02-22T07:41:11;9.13;;;6.20;;
7432;SDS011;32233;49.500;7.764;2023-02-22T07:43:38;6.73;;;5.00;;
7432;SDS011;32233;49.500;7.764;2023-02-22T07:46:04;6.60;;;4.30;;
7432;SDS011;32233;49.500;7.764;2023-02-22T07:48:31;7.97;;;3.73;;
7432;SDS011;32233;49.500;7.764;2023-02-22T07:50:58;4.07;;;3.40;;
7432;SDS011;32233;49.500;7.764;2023-02-22T07:53:26;4.50;;;3.27;;
7432;SDS011;32233;49.500;7.764;2023-02-22T07:55:56;4.53;;;3.57;;
7432;SDS011;32233;49.500;7.764;2023-02-22T07:58:24;10.43;;;6.80;;
7432;SDS011;32233;49.500;7.764;2023-02-22T08:00:52;15.87;;;9.83;;
7432;SDS011;32233;49.500;7.764;2023-02-22T08:03:19;20.30;;;10.43;;
7432;SDS011;32233;49.500;7.764;2023-02-22T08:05:49;18.83;;;11.60;;
7432;SDS011;32233;49.500;7.764;2023-02-22T08:08:19;23.80;;;12.83;;
7432;SDS011;32233;49.500;7.764;2023-02-22T08:10:46;22.00;;;11.97;;
7432;SDS011;32233;49.500;7.764;2023-02-22T08:13:13;18.77;;;12.70;;
7432;SDS011;32233;49.500;7.764;2023-02-22T08:15:40;20.53;;;12.80;;
7432;SDS011;32233;49.500;7.764;2023-02-22T08:18:10;19.60;;;11.63;;
7432;SDS011;32233;49.500;7.764;2023-02-22T08:20:38;19.10;;;10.80;;
7432;SDS011;32233;49.500;7.764;2023-02-22T08:23:07;16.37;;;9.87;;
7432;SDS011;32233;49.500;7.764;2023-02-22T08:25:34;16.13;;;9.97;;
7432;SDS011;32233;49.500;7.764;2023-02-22T08:28:02;19.67;;;11.90;;
7432;SDS011;32233;49.500;7.764;2023-02-22T08:30:31;19.23;;;12.07;;
7432;SDS011;32233;49.500;7.764;2023-02-22T08:33:00;20.83;;;12.30;;
7432;SDS011;32233;49.500;7.764;2023-02-22T08:35:28;14.00;;;9.23;;
7432;SDS011;32233;49.500;7.764;2023-02-22T08:37:59;11.00;;;7.83;;
7432;SDS011;32233;49.500;7.764;2023-02-22T08:40:29;10.77;;;7.57;;
7432;SDS011;32233;49.500;7.764;2023-02-22T08:42:57;10.50;;;7.00;;
7432;SDS011;32233;49.500;7.764;2023-02-22T08:45:23;9.33;;;7.20;;
7432;SDS011;32233;49.500;7.764;2023-02-22T08:47:50;12.00;;;7.63;;
7432;SDS011;32233;49.500;7.764;2023-02-22T08:50:23;12.10;;;6.37;;
7432;SDS011;32233;49.500;7.764;2023-02-22T08:52:52;9.90;;;6.60;;
7432;SDS011;32233;49.500;7.764;2023-02-22T08:55:21;11.07;;;6.27;;
7432;SDS011;32233;49.500;7.764;2023-02-22T08:57:48;9.27;;;6.37;;
7432;SDS011;32233;49.500;7.764;2023-02-22T09:00:16;11.03;;;6.67;;
7432;SDS011;32233;49.500;7.764;2023-02-22T09:02:43;10.27;;;6.63;;
7432;SDS011;32233;49.500;7.764;2023-02-22T09:05:10;10.50;;;7.27;;
7432;SDS011;32233;49.500;7.764;2023-02-22T09:07:39;8.07;;;6.70;;
7432;SDS011;32233;49.500;7.764;2023-02-22T09:10:17;9.20;;;6.97;;
7432;SDS011;32233;49.500;7.764;2023-02-22T09:12:51;7.07;;;6.10;;
7432;SDS011;32233;49.500;7.764;2023-02-22T09:15:20;6.20;;;5.60;;
7432;SDS011;32233;49.500;7.764;2023-02-22T09:17:48;8.73;;;5.17;;
7432;SDS011;32233;49.500;7.764;2023-02-22T09:20:15;8.27;;;5.67;;
7432;SDS011;32233;49.500;7.764;2023-02-22T09:22:44;7.77;;;5.40;;
7432;SDS011;32233;49.500;7.764;2023-02-22T09:25:11;5.50;;;5.00;;
7432;SDS011;32233;49.500;7.764;2023-02-22T09:27:42;8.23;;;5.90;;
7432;SDS011;32233;49.500;7.764;2023-02-22T09:33:06;8.80;;;5.63;;
7432;SDS011;32233;49.500;7.764;2023-02-22T09:35:35;8.07;;;6.30;;
7432;SDS011;32233;49.500;7.764;2023-02-22T09:38:03;7.17;;;5.93;;
7432;SDS011;32233;49.500;7.764;2023-02-22T09:40:32;7.77;;;6.20;;
7432;SDS011;32233;49.500;7.764;2023-02-22T09:48:50;7.47;;;6.27;;
7432;SDS011;32233;49.500;7.764;2023-02-22T09:51:26;8.63;;;6.77;;
7432;SDS011;32233;49.500;7.764;2023-02-22T09:54:01;9.50;;;6.70;;
7432;SDS011;32233;49.500;7.764;2023-02-22T09:56:29;7.87;;;6.60;;
7432;SDS011;32233;49.500;7.764;2023-02-22T09:59:00;10.57;;;6.73;;
7432;SDS011;32233;49.500;7.764;2023-02-22T10:01:33;8.93;;;7.03;;
7432;SDS011;32233;49.500;7.764;2023-02-22T10:04:16;11.40;;;6.47;;
7432;SDS011;32233;49.500;7.764;2023-02-22T10:07:35;10.70;;;6.80;;
7432;SDS011;32233;49.500;7.764;2023-02-22T10:09:41;7.73;;;6.50;;
7432;SDS011;32233;49.500;7.764;2023-02-22T10:12:11;8.27;;;6.90;;
7432;SDS011;32233;49.500;7.764;2023-02-22T10:14:47;8.13;;;6.70;;
7432;SDS011;32233;49.500;7.764;2023-02-22T10:17:36;8.50;;;6.50;;
7432;SDS011;32233;49.500;7.764;2023-02-22T10:25:21;11.87;;;9.30;;
7432;SDS011;32233;49.500;7.764;2023-02-22T10:30:50;14.30;;;10.50;;
7432;SDS011;32233;49.500;7.764;2023-02-22T10:33:23;13.73;;;10.47;;
7432;SDS011;32233;49.500;7.764;2023-02-22T10:35:54;13.47;;;10.93;;
7432;SDS011;32233;49.500;7.764;2023-02-22T10:38:33;16.97;;;11.53;;
7432;SDS011;32233;49.500;7.764;2023-02-22T10:43:36;16.63;;;11.77;;
7432;SDS011;32233;49.500;7.764;2023-02-22T10:46:07;14.37;;;11.20;;
7432;SDS011;32233;49.500;7.764;2023-02-22T10:48:38;19.00;;;12.37;;
7432;SDS011;32233;49.500;7.764;2023-02-22T10:51:07;14.90;;;11.73;;
7432;SDS011;32233;49.500;7.764;2023-02-22T10:53:35;18.10;;;12.57;;
7432;SDS011;32233;49.500;7.764;2023-02-22T11:04:11;20.47;;;12.67;;
7432;SDS011;32233;49.500;7.764;2023-02-22T11:06:41;19.67;;;14.10;;
7432;SDS011;32233;49.500;7.764;2023-02-22T11:09:17;18.73;;;13.57;;
7432;SDS011;32233;49.500;7.764;2023-02-22T11:11:48;20.23;;;14.50;;
7432;SDS011;32233;49.500;7.764;2023-02-22T11:14:31;20.07;;;13.70;;
7432;SDS011;32233;49.500;7.764;2023-02-22T11:16:58;16.83;;;13.27;;
7432;SDS011;32233;49.500;7.764;2023-02-22T11:19:27;17.47;;;13.20;;
7432;SDS011;32233;49.500;7.764;2023-02-22T11:21:56;20.77;;;13.67;;
7432;SDS011;32233;49.500;7.764;2023-02-22T11:24:42;18.20;;;13.50;;
7432;SDS011;32233;49.500;7.764;2023-02-22T11:27:48;19.73;;;14.03;;
7432;SDS011;32233;49.500;7.764;2023-02-22T11:30:11;18.63;;;12.70;;
7432;SDS011;32233;49.500;7.764;2023-02-22T11:32:58;19.63;;;13.93;;
7432;SDS011;32233;49.500;7.764;2023-02-22T11:38:25;20.40;;;14.03;;
7432;SDS011;32233;49.500;7.764;2023-02-22T11:43:44;19.13;;;13.20;;
7432;SDS011;32233;49.500;7.764;2023-02-22T11:46:19;16.77;;;13.07;;
7432;SDS011;32233;49.500;7.764;2023-02-22T12:00:21;19.07;;;14.50;;
7432;SDS011;32233;49.500;7.764;2023-02-22T12:08:41;20.90;;;14.83;;
7432;SDS011;32233;49.500;7.764;2023-02-22T12:27:56;21.63;;;14.13;;
7432;SDS011;32233;49.500;7.764;2023-02-22T12:30:34;20.03;;;14.87;;
7432;SDS011;32233;49.500;7.764;2023-02-22T12:33:05;20.10;;;15.53;;
7432;SDS011;32233;49.500;7.764;2023-02-22T12:35:40;20.07;;;14.53;;
7432;SDS011;32233;49.500;7.764;2023-02-22T12:38:13;20.70;;;14.63;;
7432;SDS011;32233;49.500;7.764;2023-02-22T12:43:35;23.90;;;13.93;;
7432;SDS011;32233;49.500;7.764;2023-02-22T12:48:56;22.13;;;14.60;;
7432;SDS011;32233;49.500;7.764;2023-02-22T12:54:13;20.53;;;14.80;;
7432;SDS011;32233;49.500;7.764;2023-02-22T12:57:00;18.73;;;14.73;;
7432;SDS011;32233;49.500;7.764;2023-02-22T12:59:35;22.73;;;15.00;;
7432;SDS011;32233;49.500;7.764;2023-02-22T13:02:28;19.53;;;14.13;;
7432;SDS011;32233;49.500;7.764;2023-02-22T13:04:58;19.43;;;14.40;;
7432;SDS011;32233;49.500;7.764;2023-02-22T13:07:38;19.70;;;14.43;;
7432;SDS011;32233;49.500;7.764;2023-02-22T13:10:45;19.73;;;14.50;;
7432;SDS011;32233;49.500;7.764;2023-02-22T13:13:33;21.50;;;14.57;;
7432;SDS011;32233;49.500;7.764;2023-02-22T13:21:45;20.70;;;13.73;;
7432;SDS011;32233;49.500;7.764;2023-02-22T13:24:22;19.07;;;13.57;;
7432;SDS011;32233;49.500;7.764;2023-02-22T13:27:09;21.33;;;15.70;;
7432;SDS011;32233;49.500;7.764;2023-02-22T13:29:43;22.53;;;15.60;;
7432;SDS011;32233;49.500;7.764;2023-02-22T13:40:42;23.33;;;15.57;;
7432;SDS011;32233;49.500;7.764;2023-02-22T13:46:00;21.73;;;14.97;;
7432;SDS011;32233;49.500;7.764;2023-02-22T13:48:56;22.83;;;14.77;;
7432;SDS011;32233;49.500;7.764;2023-02-22T13:57:02;18.47;;;13.23;;
7432;SDS011;32233;49.500;7.764;2023-02-22T13:59:42;20.13;;;13.90;;
7432;SDS011;32233;49.500;7.764;2023-02-22T14:02:14;18.77;;;12.77;;
7432;SDS011;32233;49.500;7.764;2023-02-22T14:05:32;22.20;;;14.20;;
7432;SDS011;32233;49.500;7.764;2023-02-22T14:08:00;24.00;;;12.80;;
7432;SDS011;32233;49.500;7.764;2023-02-22T14:10:37;18.87;;;13.03;;
7432;SDS011;32233;49.500;7.764;2023-02-22T14:13:11;18.83;;;13.70;;
7432;SDS011;32233;49.500;7.764;2023-02-22T14:21:08;19.10;;;13.17;;
7432;SDS011;32233;49.500;7.764;2023-02-22T14:23:43;16.00;;;11.40;;
7432;SDS011;32233;49.500;7.764;2023-02-22T14:31:21;18.73;;;12.73;;
7432;SDS011;32233;49.500;7.764;2023-02-22T14:34:14;17.87;;;12.37;;
7432;SDS011;32233;49.500;7.764;2023-02-22T14:36:50;19.47;;;12.97;;
7432;SDS011;32233;49.500;7.764;2023-02-22T14:39:35;18.37;;;13.50;;
7432;SDS011;32233;49.500;7.764;2023-02-22T14:47:43;23.00;;;13.87;;
7432;SDS011;32233;49.500;7.764;2023-02-22T14:53:35;22.70;;;15.37;;
7432;SDS011;32233;49.500;7.764;2023-02-22T14:55:56;22.33;;;15.47;;
7432;SDS011;32233;49.500;7.764;2023-02-22T14:58:38;22.83;;;15.47;;
7432;SDS011;32233;49.500;7.764;2023-02-22T15:01:27;20.37;;;15.43;;
7432;SDS011;32233;49.500;7.764;2023-02-22T15:04:20;26.30;;;16.00;;
7432;SDS011;32233;49.500;7.764;2023-02-22T15:06:48;23.03;;;15.77;;
7432;SDS011;32233;49.500;7.764;2023-02-22T15:14:38;23.63;;;15.50;;
7432;SDS011;32233;49.500;7.764;2023-02-22T15:17:06;23.30;;;16.07;;
7432;SDS011;32233;49.500;7.764;2023-02-22T15:19:37;25.73;;;16.67;;
7432;SDS011;32233;49.500;7.764;2023-02-22T15:22:13;25.10;;;15.57;;
7432;SDS011;32233;49.500;7.764;2023-02-22T15:24:58;26.43;;;16.40;;
7432;SDS011;32233;49.500;7.764;2023-02-22T15:27:27;23.87;;;16.47;;
7432;SDS011;32233;49.500;7.764;2023-02-22T15:29:57;28.00;;;16.77;;
7432;SDS011;32233;49.500;7.764;2023-02-22T15:32:32;24.43;;;15.77;;
7432;SDS011;32233;49.500;7.764;2023-02-22T15:38:01;27.30;;;16.13;;
7432;SDS011;32233;49.500;7.764;2023-02-22T15:40:28;24.13;;;15.97;;
7432;SDS011;32233;49.500;7.764;2023-02-22T15:43:02;24.53;;;17.00;;
7432;SDS011;32233;49.500;7.764;2023-02-22T15:45:35;26.87;;;16.43;;
7432;SDS011;32233;49.500;7.764;2023-02-22T15:48:09;26.10;;;17.40;;
7432;SDS011;32233;49.500;7.764;2023-02-22T15:50:38;27.30;;;18.67;;
7432;SDS011;32233;49.500;7.764;2023-02-22T15:53:26;27.40;;;18.00;;
7432;SDS011;32233;49.500;7.764;2023-02-22T15:55:57;31.20;;;18.83;;
7432;SDS011;32233;49.500;7.764;2023-02-22T15:58:26;29.73;;;19.60;;
7432;SDS011;32233;49.500;7.764;2023-02-22T16:01:05;28.27;;;18.60;;
7432;SDS011;32233;49.500;7.764;2023-02-22T16:03:37;29.10;;;18.43;;
7432;SDS011;32233;49.500;7.764;2023-02-22T16:06:16;30.20;;;19.63;;
7432;SDS011;32233;49.500;7.764;2023-02-22T16:08:53;28.50;;;19.47;;
7432;SDS011;32233;49.500;7.764;2023-02-22T16:11:23;30.83;;;19.43;;
7432;SDS011;32233;49.500;7.764;2023-02-22T16:13:56;29.57;;;20.00;;
7432;SDS011;32233;49.500;7.764;2023-02-22T16:16:27;30.63;;;20.10;;
7432;SDS011;32233;49.500;7.764;2023-02-22T16:22:22;31.10;;;19.90;;
7432;SDS011;32233;49.500;7.764;2023-02-22T16:27:42;31.93;;;20.53;;
7432;SDS011;32233;49.500;7.764;2023-02-22T16:30:30;28.47;;;19.63;;
7432;SDS011;32233;49.500;7.764;2023-02-22T16:32:57;27.50;;;19.80;;
7432;SDS011;32233;49.500;7.764;2023-02-22T16:35:27;30.13;;;19.77;;
7432;SDS011;32233;49.500;7.764;2023-02-22T16:37:58;31.70;;;21.07;;
7432;SDS011;32233;49.500;7.764;2023-02-22T16:40:27;33.70;;;21.87;;
7432;SDS011;32233;49.500;7.764;2023-02-22T16:43:00;31.13;;;21.00;;
7432;SDS011;32233;49.500;7.764;2023-02-22T16:45:28;33.37;;;21.67;;
7432;SDS011;32233;49.500;7.764;2023-02-22T16:47:55;33.57;;;21.37;;
7432;SDS011;32233;49.500;7.764;2023-02-22T16:50:21;33.83;;;21.20;;
7432;SDS011;32233;49.500;7.764;2023-02-22T16:52:49;28.57;;;20.23;;
7432;SDS011;32233;49.500;7.764;2023-02-22T16:55:19;30.73;;;20.60;;
7432;SDS011;32233;49.500;7.764;2023-02-22T16:57:46;33.23;;;21.57;;
7432;SDS011;32233;49.500;7.764;2023-02-22T17:00:18;33.20;;;21.93;;
7432;SDS011;32233;49.500;7.764;2023-02-22T17:02:56;39.87;;;22.67;;
7432;SDS011;32233;49.500;7.764;2023-02-22T17:05:24;37.27;;;23.13;;
7432;SDS011;32233;49.500;7.764;2023-02-22T17:07:50;30.97;;;22.20;;
7432;SDS011;32233;49.500;7.764;2023-02-22T17:10:17;34.07;;;21.90;;
7432;SDS011;32233;49.500;7.764;2023-02-22T17:12:47;31.03;;;21.40;;
7432;SDS011;32233;49.500;7.764;2023-02-22T17:15:20;34.90;;;23.03;;
7432;SDS011;32233;49.500;7.764;2023-02-22T17:17:49;38.37;;;23.93;;
7432;SDS011;32233;49.500;7.764;2023-02-22T17:20:17;38.47;;;23.10;;
7432;SDS011;32233;49.500;7.764;2023-02-22T17:22:56;37.67;;;23.43;;
7432;SDS011;32233;49.500;7.764;2023-02-22T17:25:32;38.43;;;24.10;;
7432;SDS011;32233;49.500;7.764;2023-02-22T17:28:02;33.60;;;22.63;;
7432;SDS011;32233;49.500;7.764;2023-02-22T17:30:29;38.73;;;23.53;;
7432;SDS011;32233;49.500;7.764;2023-02-22T17:32:58;34.33;;;23.03;;
7432;SDS011;32233;49.500;7.764;2023-02-22T17:35:33;37.13;;;24.83;;
7432;SDS011;32233;49.500;7.764;2023-02-22T17:38:03;39.87;;;25.33;;
7432;SDS011;32233;49.500;7.764;2023-02-22T17:40:35;34.23;;;23.33;;
7432;SDS011;32233;49.500;7.764;2023-02-22T17:43:04;36.70;;;23.57;;
7432;SDS011;32233;49.500;7.764;2023-02-22T17:45:36;37.33;;;23.33;;
7432;SDS011;32233;49.500;7.764;2023-02-22T17:48:03;34.17;;;23.43;;
7432;SDS011;32233;49.500;7.764;2023-02-22T17:50:30;33.30;;;22.37;;
7432;SDS011;32233;49.500;7.764;2023-02-22T17:52:57;33.00;;;21.97;;
7432;SDS011;32233;49.500;7.764;2023-02-22T17:55:26;35.07;;;22.43;;